Time;durP1;ratioP1;P1;durP2;ratioP2;P2;SDS_P1;SDS_P2;PMS_P1;PMS_P2;Temp;Humidity;BMP_temperature;BMP_pressure;BME280_temperature;BME280_humidity;BME280_pressure;Samples;Min_cycle;Max_cycle;Signal;HPM_P1;HPM_P2
2023/09/19 00:00:00;;;;;;;4.47;3.75;;;;;;;;;;10454179;27;20512;-67
2023/09/19 00:05:03;;;;;;;6.63;4.10;;;;;;;;;;10453662;27;20067;-67
2023/09/19 00:10:02;;;;;;;6.20;4.35;;;;;;;;;;10457769;27;20079;-68
2023/09/19 00:15:05;;;;;;;4.35;3.95;;;;;;;;;;10454159;27;20074;-68
2023/09/19 00:20:07;;;;;;;5.55;3.67;;;;;;;;;;10454966;27;20063;-67
2023/09/19 00:25:06;;;;;;;6.53;4.13;;;;;;;;;;10457130;27;20490;-68
2023/09/19 00:30:08;;;;;;;5.28;4.78;;;;;;;;;;10454581;27;20082;-68
2023/09/19 00:35:07;;;;;;;4.18;3.70;;;;;;;;;;10455400;27;20081;-68
2023/09/19 00:40:09;;;;;;;6.18;3.92;;;;;;;;;;10436588;27;20058;-68
2023/09/19 00:45:11;;;;;;;5.15;4.65;;;;;;;;;;10433406;27;20093;-68
2023/09/19 00:50:14;;;;;;;6.00;4.22;;;;;;;;;;10460729;27;20419;-67
2023/09/19 00:55:14;;;;;;;4.28;3.88;;;;;;;;;;10442818;27;20094;-68
2023/09/19 01:00:15;;;;;;;5.38;4.10;;;;;;;;;;10444633;27;20424;-68
2023/09/19 01:05:13;;;;;;;5.68;4.47;;;;;;;;;;10458980;27;20083;-68
2023/09/19 01:10:12;;;;;;;7.72;5.05;;;;;;;;;;10463799;27;20440;-66
2023/09/19 01:15:14;;;;;;;5.68;4.20;;;;;;;;;;10459887;27;20082;-67
2023/09/19 01:20:19;;;;;;;9.23;3.90;;;;;;;;;;10462072;27;20074;-68
2023/09/19 01:25:29;;;;;;;5.28;4.25;;;;;;;;;;10464542;27;20078;-66
2023/09/19 01:30:31;;;;;;;4.45;4.05;;;;;;;;;;10462669;27;20089;-68
2023/09/19 01:35:29;;;;;;;10.30;5.53;;;;;;;;;;10450197;27;20297;-69
2023/09/19 01:40:27;;;;;;;6.57;4.38;;;;;;;;;;10457889;27;20071;-67
2023/09/19 01:45:33;;;;;;;5.00;4.50;;;;;;;;;;10442669;27;20047;-68
2023/09/19 01:50:36;;;;;;;7.60;5.10;;;;;;;;;;10440154;27;20081;-67
2023/09/19 01:55:37;;;;;;;5.23;4.43;;;;;;;;;;10443928;27;20071;-68
2023/09/19 02:00:38;;;;;;;6.82;4.95;;;;;;;;;;10440006;27;20079;-67
2023/09/19 02:05:39;;;;;;;5.38;4.88;;;;;;;;;;10457129;27;20066;-66
2023/09/19 02:10:37;;;;;;;6.50;5.68;;;;;;;;;;10461323;27;20450;-66
2023/09/19 02:15:37;;;;;;;6.38;5.38;;;;;;;;;;10441175;27;20082;-67
2023/09/19 02:20:37;;;;;;;5.65;4.75;;;;;;;;;;10459450;27;20124;-67
2023/09/19 02:25:37;;;;;;;5.80;4.90;;;;;;;;;;10459292;27;20073;-67
2023/09/19 02:30:36;;;;;;;5.97;5.38;;;;;;;;;;10456827;27;20086;-67
2023/09/19 02:35:36;;;;;;;6.72;5.30;;;;;;;;;;10454895;27;20070;-68
2023/09/19 02:40:37;;;;;;;5.93;4.90;;;;;;;;;;10460467;27;20067;-69
2023/09/19 02:45:38;;;;;;;5.55;4.53;;;;;;;;;;10458975;27;20467;-67
2023/09/19 02:50:36;;;;;;;5.68;5.18;;;;;;;;;;10440017;27;20075;-67
2023/09/19 02:55:35;;;;;;;6.95;6.25;;;;;;;;;;10445239;27;20086;-68
2023/09/19 03:00:35;;;;;;;8.15;6.47;;;;;;;;;;10454590;27;20078;-68
2023/09/19 03:05:33;;;;;;;11.15;7.00;;;;;;;;;;10442791;27;20047;-67
2023/09/19 03:10:32;;;;;;;8.80;5.85;;;;;;;;;;10440524;27;20039;-67
2023/09/19 03:15:30;;;;;;;5.95;5.35;;;;;;;;;;10444838;27;20078;-67
2023/09/19 03:20:30;;;;;;;11.13;7.10;;;;;;;;;;10456992;27;20141;-68
2023/09/19 03:25:28;;;;;;;9.10;6.82;;;;;;;;;;10455081;27;20066;-67
2023/09/19 03:30:27;;;;;;;6.72;6.03;;;;;;;;;;10441790;27;20082;-66
2023/09/19 03:35:26;;;;;;;11.55;6.28;;;;;;;;;;10439878;27;20066;-67
2023/09/19 03:40:25;;;;;;;7.25;6.25;;;;;;;;;;10451654;27;20065;-67
2023/09/19 03:45:24;;;;;;;13.30;6.90;;;;;;;;;;10445639;27;20070;-66
2023/09/19 03:50:23;;;;;;;13.32;6.75;;;;;;;;;;10446149;27;20113;-67
2023/09/19 03:55:22;;;;;;;8.50;6.20;;;;;;;;;;10434418;27;20078;-67
2023/09/19 04:00:23;;;;;;;10.25;6.43;;;;;;;;;;10444468;27;20066;-68
2023/09/19 04:05:21;;;;;;;12.82;6.80;;;;;;;;;;10439290;27;20075;-67
2023/09/19 04:10:20;;;;;;;7.55;6.45;;;;;;;;;;10432755;27;20081;-69
2023/09/19 04:15:18;;;;;;;8.07;6.63;;;;;;;;;;10452225;27;20503;-66
2023/09/19 04:20:19;;;;;;;11.70;7.30;;;;;;;;;;10458243;27;20089;-67
2023/09/19 04:25:17;;;;;;;10.05;7.82;;;;;;;;;;10431830;27;20047;-67
2023/09/19 04:30:16;;;;;;;15.23;9.70;;;;;;;;;;10435636;27;20071;-68
2023/09/19 04:35:14;;;;;;;13.15;9.15;;;;;;;;;;10452345;27;20077;-68
2023/09/19 04:40:17;;;;;;;13.70;9.00;;;;;;;;;;10449186;27;20070;-67
2023/09/19 04:45:16;;;;;;;10.70;9.60;;;;;;;;;;10453129;27;20065;-68
2023/09/19 04:50:14;;;;;;;14.20;9.35;;;;;;;;;;10455186;27;20558;-68
2023/09/19 04:55:16;;;;;;;16.50;9.80;;;;;;;;;;10442734;27;20496;-67
2023/09/19 05:00:17;;;;;;;14.80;9.00;;;;;;;;;;10448397;27;20066;-67
2023/09/19 05:05:16;;;;;;;14.15;9.07;;;;;;;;;;10455132;27;20066;-67
2023/09/19 05:10:18;;;;;;;10.98;8.20;;;;;;;;;;10455139;27;20082;-68
2023/09/19 05:15:17;;;;;;;12.43;7.93;;;;;;;;;;10455153;27;20067;-67
2023/09/19 05:20:24;;;;;;;10.43;7.90;;;;;;;;;;10452642;27;20067;-68
2023/09/19 05:25:24;;;;;;;10.32;6.60;;;;;;;;;;10453850;27;20066;-67
2023/09/19 05:30:23;;;;;;;11.13;7.65;;;;;;;;;;10452722;27;20087;-67
2023/09/19 05:35:21;;;;;;;10.30;7.68;;;;;;;;;;10438273;27;20637;-68
2023/09/19 05:40:20;;;;;;;12.80;8.02;;;;;;;;;;10462044;27;20070;-70
2023/09/19 05:45:22;;;;;;;9.13;8.10;;;;;;;;;;10461986;27;20070;-70
2023/09/19 05:50:20;;;;;;;11.27;7.53;;;;;;;;;;10466984;27;20071;-70
2023/09/19 05:55:19;;;;;;;9.70;8.38;;;;;;;;;;10457977;27;20464;-69
2023/09/19 06:00:22;;;;;;;11.00;8.30;;;;;;;;;;10465879;27;20074;-69
2023/09/19 06:05:21;;;;;;;7.70;6.97;;;;;;;;;;10458681;27;20105;-69
2023/09/19 06:10:20;;;;;;;8.88;6.18;;;;;;;;;;10462326;27;20094;-70
2023/09/19 06:15:21;;;;;;;6.47;5.38;;;;;;;;;;10460030;27;20047;-71
2023/09/19 06:20:19;;;;;;;5.45;4.95;;;;;;;;;;10460696;27;20459;-68
2023/09/19 06:25:20;;;;;;;7.05;5.32;;;;;;;;;;10460303;27;20074;-69
2023/09/19 06:30:19;;;;;;;12.70;5.80;;;;;;;;;;10457675;27;20091;-69
2023/09/19 06:35:17;;;;;;;5.88;4.82;;;;;;;;;;10456565;27;20093;-69
2023/09/19 06:40:16;;;;;;;5.68;4.95;;;;;;;;;;10464692;27;20083;-68
2023/09/19 06:45:18;;;;;;;5.55;4.80;;;;;;;;;;10459659;27;20070;-71
2023/09/19 06:50:18;;;;;;;7.15;4.90;;;;;;;;;;10459676;27;20070;-69
2023/09/19 06:55:17;;;;;;;5.15;4.60;;;;;;;;;;10454725;27;20062;-69
2023/09/19 07:00:18;;;;;;;4.00;3.65;;;;;;;;;;10462941;27;20082;-69
2023/09/19 07:05:18;;;;;;;4.32;3.08;;;;;;;;;;10463474;27;20467;-69
2023/09/19 07:10:18;;;;;;;4.50;3.85;;;;;;;;;;10451588;27;20074;-69
2023/09/19 07:15:18;;;;;;;6.43;5.35;;;;;;;;;;10459048;27;20097;-69
2023/09/19 07:20:16;;;;;;;6.13;3.97;;;;;;;;;;10459126;27;20518;-67
2023/09/19 07:25:14;;;;;;;4.07;3.38;;;;;;;;;;10460647;27;20074;-69
2023/09/19 07:30:14;;;;;;;4.88;3.70;;;;;;;;;;10457564;27;20657;-69
2023/09/19 07:35:14;;;;;;;4.38;3.75;;;;;;;;;;10460195;27;20065;-69
2023/09/19 07:40:13;;;;;;;3.20;2.97;;;;;;;;;;10435348;27;20479;-69
2023/09/19 07:45:14;;;;;;;4.85;3.85;;;;;;;;;;10459547;27;20100;-69
2023/09/19 07:50:14;;;;;;;4.18;3.08;;;;;;;;;;10457064;27;20300;-70
2023/09/19 07:55:16;;;;;;;7.35;3.40;;;;;;;;;;10455602;27;20063;-70
2023/09/19 08:00:14;;;;;;;3.08;2.75;;;;;;;;;;10457601;27;20562;-70
2023/09/19 08:05:16;;;;;;;2.95;2.65;;;;;;;;;;10460169;27;20600;-70
2023/09/19 08:10:15;;;;;;;4.13;3.28;;;;;;;;;;10454238;27;20070;-68
2023/09/19 08:15:14;;;;;;;6.10;2.85;;;;;;;;;;10448210;27;20073;-68
2023/09/19 08:20:16;;;;;;;3.58;3.08;;;;;;;;;;10456025;27;20114;-68
2023/09/19 08:25:17;;;;;;;4.30;3.55;;;;;;;;;;10455233;27;20077;-69
2023/09/19 08:30:16;;;;;;;5.03;3.60;;;;;;;;;;10449924;27;20101;-68
2023/09/19 08:35:16;;;;;;;3.35;2.50;;;;;;;;;;10451880;27;20070;-69
2023/09/19 08:40:14;;;;;;;4.40;2.60;;;;;;;;;;10455880;27;20074;-68
2023/09/19 08:45:14;;;;;;;4.38;2.70;;;;;;;;;;10460890;27;20089;-67
2023/09/19 08:50:16;;;;;;;3.67;2.10;;;;;;;;;;10457665;27;20070;-69
2023/09/19 08:55:20;;;;;;;4.22;2.30;;;;;;;;;;10459477;27;20097;-68
2023/09/19 09:00:20;;;;;;;3.95;2.80;;;;;;;;;;10451645;27;20070;-67
2023/09/19 09:05:22;;;;;;;3.88;2.53;;;;;;;;;;10449003;27;20066;-66
2023/09/19 09:10:22;;;;;;;5.03;2.65;;;;;;;;;;10458472;27;20067;-67
2023/09/19 09:15:23;;;;;;;4.93;2.70;;;;;;;;;;10457489;27;20071;-67
2023/09/19 09:20:21;;;;;;;3.47;2.58;;;;;;;;;;10465082;27;20546;-66
2023/09/19 09:25:24;;;;;;;3.30;2.78;;;;;;;;;;10455026;27;20081;-66
2023/09/19 09:30:33;;;;;;;3.13;2.67;;;;;;;;;;10462428;27;20078;-67
2023/09/19 09:35:31;;;;;;;4.22;2.75;;;;;;;;;;10461593;27;20078;-66
2023/09/19 09:40:47;;;;;;;2.78;2.58;;;;;;;;;;10459779;27;20071;-65
2023/09/19 09:45:48;;;;;;;6.53;2.60;;;;;;;;;;10463466;27;20476;-65
2023/09/19 09:50:55;;;;;;;3.42;2.50;;;;;;;;;;10463511;27;20070;-66
2023/09/19 09:56:05;;;;;;;5.65;2.17;;;;;;;;;;10461606;27;20070;-66
2023/09/19 10:01:08;;;;;;;3.33;2.45;;;;;;;;;;10461479;27;20070;-66
2023/09/19 10:06:24;;;;;;;2.50;2.30;;;;;;;;;;10457385;27;20066;-66
2023/09/19 10:11:30;;;;;;;5.10;2.17;;;;;;;;;;10457715;27;20499;-65
2023/09/19 10:16:30;;;;;;;5.10;2.35;;;;;;;;;;10456382;27;20570;-66
2023/09/19 10:21:30;;;;;;;4.70;3.08;;;;;;;;;;10452019;27;20058;-67
2023/09/19 10:26:30;;;;;;;4.45;2.65;;;;;;;;;;10458403;27;20066;-66
2023/09/19 10:31:29;;;;;;;3.38;2.50;;;;;;;;;;10461341;27;20086;-67
2023/09/19 10:36:28;;;;;;;4.95;2.60;;;;;;;;;;10457368;27;20071;-65
2023/09/19 10:41:30;;;;;;;3.28;2.35;;;;;;;;;;10453366;27;20073;-66
2023/09/19 10:46:29;;;;;;;3.65;2.17;;;;;;;;;;10449865;27;20079;-66
2023/09/19 10:51:31;;;;;;;3.65;2.28;;;;;;;;;;10446260;27;20070;-64
2023/09/19 10:56:32;;;;;;;2.75;2.45;;;;;;;;;;10458870;27;20104;-63
2023/09/19 11:01:44;;;;;;;4.45;2.42;;;;;;;;;;10451621;27;20077;-66
2023/09/19 11:06:43;;;;;;;4.22;2.67;;;;;;;;;;10463405;27;20062;-65
2023/09/19 11:11:52;;;;;;;7.43;2.30;;;;;;;;;;10461677;27;20671;-67
2023/09/19 11:17:07;;;;;;;3.60;2.33;;;;;;;;;;10458362;27;20077;-66
2023/09/19 11:22:08;;;;;;;4.60;2.80;;;;;;;;;;10460596;27;20066;-66
2023/09/19 11:27:10;;;;;;;6.28;3.08;;;;;;;;;;10452538;27;20078;-65
2023/09/19 11:32:09;;;;;;;6.78;2.72;;;;;;;;;;10458055;27;20074;-66
2023/09/19 11:37:27;;;;;;;6.22;2.63;;;;;;;;;;10455814;27;20073;-65
2023/09/19 11:42:43;;;;;;;7.93;3.30;;;;;;;;;;10441113;27;20073;-66
2023/09/19 11:47:43;;;;;;;5.90;2.70;;;;;;;;;;10456831;27;20515;-66
2023/09/19 11:52:42;;;;;;;4.13;2.72;;;;;;;;;;10448862;27;20078;-66
2023/09/19 11:57:41;;;;;;;11.80;7.00;;;;;;;;;;10454500;27;20066;-67
2023/09/19 12:02:43;;;;;;;3.35;2.58;;;;;;;;;;10449623;27;20086;-68
2023/09/19 12:07:45;;;;;;;7.90;3.20;;;;;;;;;;10452519;27;20077;-68
2023/09/19 12:12:48;;;;;;;4.82;3.17;;;;;;;;;;10459131;27;20062;-68
2023/09/19 12:17:48;;;;;;;3.60;3.20;;;;;;;;;;10456433;27;20075;-67
2023/09/19 12:22:49;;;;;;;4.13;3.13;;;;;;;;;;10451984;27;20077;-68
2023/09/19 12:27:49;;;;;;;4.13;2.40;;;;;;;;;;10457235;27;20538;-66
2023/09/19 12:32:49;;;;;;;3.10;2.50;;;;;;;;;;10458486;27;20066;-69
2023/09/19 12:37:55;;;;;;;2.92;2.70;;;;;;;;;;10457642;27;20066;-69
2023/09/19 12:42:55;;;;;;;4.65;2.35;;;;;;;;;;10453561;27;20078;-68
2023/09/19 12:48:11;;;;;;;4.10;2.95;;;;;;;;;;10467662;27;20058;-69
2023/09/19 12:53:25;;;;;;;3.55;2.70;;;;;;;;;;10466034;27;20085;-68
2023/09/19 12:58:24;;;;;;;5.43;3.60;;;;;;;;;;10467204;27;21018;-68
2023/09/19 13:03:28;;;;;;;9.50;3.10;;;;;;;;;;10468802;27;20084;-69
2023/09/19 13:08:30;;;;;;;4.82;3.63;;;;;;;;;;10469974;27;20054;-69
2023/09/19 13:13:29;;;;;;;4.38;3.08;;;;;;;;;;10461952;27;20082;-69
2023/09/19 13:18:27;;;;;;;3.60;2.88;;;;;;;;;;10473064;27;20071;-70
2023/09/19 13:23:30;;;;;;;4.72;3.55;;;;;;;;;;10470812;27;20066;-69
2023/09/19 13:28:29;;;;;;;5.20;3.08;;;;;;;;;;10465851;27;20079;-69
2023/09/19 13:33:27;;;;;;;3.45;2.65;;;;;;;;;;10465848;27;20076;-70
2023/09/19 13:38:25;;;;;;;7.57;3.33;;;;;;;;;;10461676;27;20070;-69
2023/09/19 13:43:25;;;;;;;2.67;2.47;;;;;;;;;;10463549;27;20077;-68
2023/09/19 13:48:24;;;;;;;3.85;3.22;;;;;;;;;;10454085;27;20093;-70
2023/09/19 13:53:22;;;;;;;3.08;2.78;;;;;;;;;;10466648;27;20066;-67
2023/09/19 13:58:21;;;;;;;5.30;2.47;;;;;;;;;;10460470;27;20105;-69
2023/09/19 14:03:21;;;;;;;4.60;3.20;;;;;;;;;;10454935;27;20462;-68
2023/09/19 14:08:19;;;;;;;7.80;3.33;;;;;;;;;;10456620;27;20078;-69
2023/09/19 14:13:18;;;;;;;3.60;3.17;;;;;;;;;;10454790;27;20074;-69
2023/09/19 14:18:16;;;;;;;3.58;2.90;;;;;;;;;;10457002;27;20066;-68
2023/09/19 14:23:16;;;;;;;5.38;2.58;;;;;;;;;;10460305;27;20086;-70
2023/09/19 14:28:16;;;;;;;11.05;2.88;;;;;;;;;;10461568;27;20109;-67
2023/09/19 14:33:15;;;;;;;8.45;2.25;;;;;;;;;;10459397;27;20467;-68
2023/09/19 14:38:14;;;;;;;5.78;2.38;;;;;;;;;;10456688;27;20074;-67
2023/09/19 14:43:13;;;;;;;3.15;2.38;;;;;;;;;;10459249;27;20515;-68
2023/09/19 14:48:12;;;;;;;3.72;2.70;;;;;;;;;;10453549;27;20058;-68
2023/09/19 14:53:12;;;;;;;3.85;3.15;;;;;;;;;;10438578;27;20082;-68
2023/09/19 14:58:10;;;;;;;8.52;3.15;;;;;;;;;;10457288;27;20182;-70
2023/09/19 15:03:11;;;;;;;5.97;3.15;;;;;;;;;;10459552;27;20086;-70
2023/09/19 15:08:10;;;;;;;7.30;3.88;;;;;;;;;;10455408;27;20058;-70
2023/09/19 15:13:11;;;;;;;6.32;4.38;;;;;;;;;;10437850;27;20051;-68
2023/09/19 15:18:12;;;;;;;6.00;3.75;;;;;;;;;;10458078;27;20070;-68
2023/09/19 15:23:11;;;;;;;9.30;4.22;;;;;;;;;;10459510;27;20103;-69
2023/09/19 15:28:09;;;;;;;9.98;3.83;;;;;;;;;;10453113;27;20071;-68
2023/09/19 15:33:07;;;;;;;6.75;3.58;;;;;;;;;;10447610;27;20074;-68
2023/09/19 15:38:07;;;;;;;8.85;4.15;;;;;;;;;;10450765;27;20142;-68
2023/09/19 15:43:05;;;;;;;12.15;5.00;;;;;;;;;;10455935;27;20070;-68
2023/09/19 15:48:04;;;;;;;5.47;4.57;;;;;;;;;;10451791;27;20062;-68
2023/09/19 15:53:03;;;;;;;9.55;5.50;;;;;;;;;;10458150;27;20103;-68
2023/09/19 15:58:06;;;;;;;10.10;4.65;;;;;;;;;;10455020;27;20070;-68
2023/09/19 16:03:04;;;;;;;18.20;4.80;;;;;;;;;;10456501;27;20085;-69
2023/09/19 16:08:03;;;;;;;6.40;4.53;;;;;;;;;;10449217;27;20070;-68
2023/09/19 16:13:04;;;;;;;6.93;3.55;;;;;;;;;;10453736;27;20078;-68
2023/09/19 16:18:02;;;;;;;5.90;4.15;;;;;;;;;;10457458;27;20081;-67
2023/09/19 16:23:01;;;;;;;7.32;3.45;;;;;;;;;;10456476;27;20071;-67
2023/09/19 16:27:59;;;;;;;9.80;4.10;;;;;;;;;;10455556;27;20086;-68
2023/09/19 16:32:59;;;;;;;11.60;4.10;;;;;;;;;;10456207;27;20538;-68
2023/09/19 16:37:58;;;;;;;8.80;5.82;;;;;;;;;;10456388;27;20066;-68
2023/09/19 16:42:56;;;;;;;7.63;5.05;;;;;;;;;;10447717;27;20071;-66
2023/09/19 16:47:55;;;;;;;6.90;4.88;;;;;;;;;;10459450;27;20136;-67
2023/09/19 16:52:55;;;;;;;6.63;4.50;;;;;;;;;;10459467;27;20078;-67
2023/09/19 16:57:54;;;;;;;6.97;4.57;;;;;;;;;;10451306;27;20094;-67
2023/09/19 17:02:52;;;;;;;8.88;4.80;;;;;;;;;;10457409;27;20073;-67
2023/09/19 17:07:55;;;;;;;10.90;5.18;;;;;;;;;;10444382;27;20089;-67
2023/09/19 17:12:55;;;;;;;20.75;6.50;;;;;;;;;;10457448;27;20070;-67
2023/09/19 17:17:54;;;;;;;8.85;4.15;;;;;;;;;;10455549;27;20075;-67
2023/09/19 17:22:52;;;;;;;7.72;4.45;;;;;;;;;;10459602;27;20073;-67
2023/09/19 17:27:52;;;;;;;8.23;3.42;;;;;;;;;;10460848;27;20550;-67
2023/09/19 17:32:50;;;;;;;9.00;3.70;;;;;;;;;;10461791;27;20066;-67
2023/09/19 17:37:50;;;;;;;8.60;4.25;;;;;;;;;;10468019;27;20062;-68
2023/09/19 17:42:48;;;;;;;5.65;3.95;;;;;;;;;;10465490;27;20070;-68
2023/09/19 17:47:48;;;;;;;8.30;3.67;;;;;;;;;;10465910;27;20066;-68
2023/09/19 17:52:46;;;;;;;5.93;3.17;;;;;;;;;;10460315;27;20069;-67
2023/09/19 17:57:45;;;;;;;11.20;3.25;;;;;;;;;;10460120;27;20136;-66
2023/09/19 18:02:43;;;;;;;7.68;4.15;;;;;;;;;;10462656;27;20066;-67
2023/09/19 18:07:45;;;;;;;13.05;6.63;;;;;;;;;;10458799;27;20081;-67
2023/09/19 18:12:44;;;;;;;14.20;7.32;;;;;;;;;;10459652;27;20071;-66
2023/09/19 18:17:44;;;;;;;9.50;5.70;;;;;;;;;;10465433;27;20090;-67
2023/09/19 18:22:42;;;;;;;17.17;5.95;;;;;;;;;;10458796;27;20078;-66
2023/09/19 18:27:42;;;;;;;9.05;5.40;;;;;;;;;;10459920;27;20074;-66
2023/09/19 18:32:41;;;;;;;9.85;5.28;;;;;;;;;;10461736;27;20098;-67
2023/09/19 18:37:41;;;;;;;9.15;4.90;;;;;;;;;;10457010;27;20066;-66
2023/09/19 18:42:40;;;;;;;12.70;5.30;;;;;;;;;;10459665;27;20462;-66
2023/09/19 18:47:41;;;;;;;6.75;4.00;;;;;;;;;;10458745;27;20067;-67
2023/09/19 18:52:40;;;;;;;13.57;5.53;;;;;;;;;;10460009;27;20461;-67
2023/09/19 18:57:40;;;;;;;8.80;5.78;;;;;;;;;;10458625;27;20070;-66
2023/09/19 19:02:40;;;;;;;7.93;5.63;;;;;;;;;;10459461;27;20082;-67
2023/09/19 19:07:39;;;;;;;8.95;4.60;;;;;;;;;;10455557;27;20074;-67
2023/09/19 19:12:37;;;;;;;9.15;4.30;;;;;;;;;;10439570;27;20093;-66
2023/09/19 19:17:35;;;;;;;6.70;3.97;;;;;;;;;;10457823;27;20058;-66
2023/09/19 19:22:37;;;;;;;7.00;4.32;;;;;;;;;;10458291;27;20507;-68
2023/09/19 19:27:35;;;;;;;12.68;5.72;;;;;;;;;;10460308;27;20093;-67
2023/09/19 19:32:33;;;;;;;8.00;4.93;;;;;;;;;;10460395;27;20751;-67
2023/09/19 19:37:33;;;;;;;8.50;5.25;;;;;;;;;;10460146;27;20074;-66
2023/09/19 19:42:33;;;;;;;6.68;4.90;;;;;;;;;;10455324;27;20092;-66
2023/09/19 19:47:31;;;;;;;11.30;4.93;;;;;;;;;;10455039;27;20071;-67
2023/09/19 19:52:30;;;;;;;15.55;6.43;;;;;;;;;;10455643;27;20070;-67
2023/09/19 19:57:28;;;;;;;17.23;6.40;;;;;;;;;;10455415;27;20059;-66
2023/09/19 20:02:29;;;;;;;12.13;4.95;;;;;;;;;;10455809;27;20094;-67
2023/09/19 20:07:30;;;;;;;11.23;5.00;;;;;;;;;;10453973;27;20531;-67
2023/09/19 20:12:28;;;;;;;7.45;5.85;;;;;;;;;;10436917;27;20533;-66
2023/09/19 20:17:28;;;;;;;7.03;5.18;;;;;;;;;;10460358;27;20066;-65
2023/09/19 20:22:26;;;;;;;19.05;5.72;;;;;;;;;;10457307;27;20074;-67
2023/09/19 20:27:25;;;;;;;11.65;5.70;;;;;;;;;;10457122;27;20070;-65
2023/09/19 20:32:23;;;;;;;11.50;5.75;;;;;;;;;;10452358;27;20917;-67
2023/09/19 20:37:23;;;;;;;8.23;5.05;;;;;;;;;;10452621;27;20074;-67
2023/09/19 20:42:23;;;;;;;9.35;5.00;;;;;;;;;;10456111;27;20066;-67
2023/09/19 20:47:21;;;;;;;9.82;5.60;;;;;;;;;;10455345;27;20073;-68
2023/09/19 20:52:20;;;;;;;6.57;5.53;;;;;;;;;;10439683;27;20070;-68
2023/09/19 20:57:20;;;;;;;10.98;5.65;;;;;;;;;;10452680;27;20067;-68
2023/09/19 21:02:19;;;;;;;11.82;4.78;;;;;;;;;;10455596;27;20078;-67
2023/09/19 21:07:17;;;;;;;8.27;5.15;;;;;;;;;;10467207;27;20069;-67
2023/09/19 21:12:15;;;;;;;7.07;4.95;;;;;;;;;;10471431;27;20423;-67
2023/09/19 21:17:15;;;;;;;8.93;5.38;;;;;;;;;;10457137;27;20077;-68
2023/09/19 21:22:13;;;;;;;6.30;5.18;;;;;;;;;;10459768;27;20483;-68
2023/09/19 21:27:14;;;;;;;7.70;4.85;;;;;;;;;;10461288;27;20240;-67
2023/09/19 21:32:13;;;;;;;9.30;5.90;;;;;;;;;;10461886;27;20059;-67
2023/09/19 21:37:14;;;;;;;8.38;5.68;;;;;;;;;;10460409;27;20066;-68
2023/09/19 21:42:13;;;;;;;13.18;5.95;;;;;;;;;;10459187;27;20074;-68
2023/09/19 21:47:11;;;;;;;10.15;5.38;;;;;;;;;;10451149;27;20804;-68
2023/09/19 21:52:09;;;;;;;10.07;5.85;;;;;;;;;;10457738;27;20075;-67
2023/09/19 21:57:09;;;;;;;7.97;5.43;;;;;;;;;;10460018;27;20070;-68
2023/09/19 22:02:08;;;;;;;10.38;5.53;;;;;;;;;;10455935;27;20076;-68
2023/09/19 22:07:06;;;;;;;12.13;6.55;;;;;;;;;;10459385;27;20059;-66
2023/09/19 22:12:06;;;;;;;10.98;5.97;;;;;;;;;;10458912;27;20070;-68
2023/09/19 22:17:07;;;;;;;7.35;5.40;;;;;;;;;;10456833;27;20081;-67
2023/09/19 22:22:11;;;;;;;7.45;5.80;;;;;;;;;;10458035;27;20085;-67
2023/09/19 22:27:11;;;;;;;9.57;7.20;;;;;;;;;;10458882;27;20081;-67
2023/09/19 22:32:11;;;;;;;11.00;5.97;;;;;;;;;;10459028;27;20063;-67
2023/09/19 22:37:11;;;;;;;6.53;5.82;;;;;;;;;;10459384;27;20078;-66
2023/09/19 22:42:11;;;;;;;11.40;6.82;;;;;;;;;;10458620;27;20066;-68
2023/09/19 22:47:11;;;;;;;9.90;6.57;;;;;;;;;;10460031;27;20070;-67
2023/09/19 22:52:10;;;;;;;10.27;6.25;;;;;;;;;;10456851;27;20063;-66
2023/09/19 22:57:09;;;;;;;9.07;6.38;;;;;;;;;;10458280;27;20070;-68
2023/09/19 23:02:10;;;;;;;12.63;6.63;;;;;;;;;;10456830;27;20075;-68
2023/09/19 23:07:11;;;;;;;7.53;6.10;;;;;;;;;;10458489;27;20148;-67
2023/09/19 23:12:11;;;;;;;11.95;5.93;;;;;;;;;;10457051;27;20167;-68
2023/09/19 23:17:12;;;;;;;9.30;6.70;;;;;;;;;;10457766;27;20468;-69
2023/09/19 23:22:22;;;;;;;8.70;6.28;;;;;;;;;;10459058;27;20067;-68
2023/09/19 23:27:24;;;;;;;7.90;6.57;;;;;;;;;;10450983;27;20070;-68
2023/09/19 23:32:23;;;;;;;9.27;6.15;;;;;;;;;;10457247;27;20036;-68
2023/09/19 23:37:24;;;;;;;13.50;6.63;;;;;;;;;;10455207;27;20076;-68
2023/09/19 23:42:23;;;;;;;14.73;7.65;;;;;;;;;;10456316;27;20070;-68
2023/09/19 23:47:22;;;;;;;6.75;6.03;;;;;;;;;;10455650;27;20083;-68
2023/09/19 23:52:20;;;;;;;11.35;6.55;;;;;;;;;;10455457;27;20078;-69
2023/09/19 23:57:21;;;;;;;13.00;7.13;;;;;;;;;;10457353;27;20047;-69
